createdAt,value
2022-12-31T00:00:38.649Z,86.36
2022-12-31T00:01:40.562Z,86.06
2022-12-31T00:02:42.464Z,86.44
2022-12-31T00:03:44.831Z,86.50
2022-12-31T00:04:46.731Z,86.82
2022-12-31T00:05:48.616Z,86.42
2022-12-31T00:06:50.460Z,87.18
2022-12-31T00:07:52.555Z,87.33
2022-12-31T00:08:55.474Z,86.80
2022-12-31T00:09:57.283Z,86.89
2022-12-31T00:10:59.039Z,87.00
2022-12-31T00:12:00.932Z,87.03
2022-12-31T00:13:02.772Z,86.45
2022-12-31T00:14:04.697Z,86.80
2022-12-31T00:15:07.675Z,86.22
2022-12-31T00:16:12.448Z,86.58
2022-12-31T00:17:14.658Z,86.04
2022-12-31T00:18:16.525Z,85.77
2022-12-31T00:19:18.324Z,85.96
2022-12-31T00:20:20.180Z,85.90
2022-12-31T00:21:22.828Z,85.77
2022-12-31T00:22:24.766Z,85.89
2022-12-31T00:23:26.630Z,85.67
2022-12-31T00:24:31.279Z,85.53
2022-12-31T00:25:34.680Z,85.20
2022-12-31T00:26:36.584Z,85.15
2022-12-31T00:27:38.375Z,85.36
2022-12-31T00:28:40.857Z,85.22
2022-12-31T00:29:42.729Z,84.57
2022-12-31T00:30:44.661Z,84.54
2022-12-31T00:31:46.461Z,85.01
2022-12-31T00:32:49.698Z,85.05
2022-12-31T00:33:51.750Z,84.87
2022-12-31T00:34:53.611Z,84.90
2022-12-31T00:35:55.420Z,85.00
2022-12-31T00:36:57.305Z,85.13
2022-12-31T00:37:59.708Z,85.26
2022-12-31T00:39:02.295Z,84.86
2022-12-31T00:40:04.644Z,84.45
2022-12-31T00:41:06.823Z,84.71
2022-12-31T00:42:08.676Z,84.26
2022-12-31T00:43:10.605Z,84.63
2022-12-31T00:44:13.060Z,84.03
2022-12-31T00:45:15.087Z,84.20
2022-12-31T00:46:17.271Z,84.23
2022-12-31T00:47:19.216Z,84.93
2022-12-31T00:48:21.427Z,84.75
2022-12-31T00:49:23.321Z,84.68
2022-12-31T00:50:25.140Z,84.78
2022-12-31T00:51:27.924Z,85.37
2022-12-31T00:52:29.862Z,86.05
2022-12-31T00:53:31.696Z,85.90
2022-12-31T00:54:34.495Z,86.10
2022-12-31T00:55:36.307Z,85.11
2022-12-31T00:56:38.260Z,85.98
2022-12-31T00:57:40.130Z,86.20
2022-12-31T00:58:42.466Z,85.79
2022-12-31T00:59:44.231Z,86.32
2022-12-31T01:00:46.104Z,85.90
2022-12-31T01:01:48.285Z,86.07
2022-12-31T01:02:50.425Z,86.47
2022-12-31T01:03:53.473Z,85.87
2022-12-31T01:04:55.461Z,85.84
2022-12-31T01:05:59.414Z,85.19
2022-12-31T01:07:01.358Z,86.22
2022-12-31T01:08:03.259Z,85.88
2022-12-31T01:09:05.788Z,85.84
2022-12-31T01:10:08.702Z,85.88
2022-12-31T01:11:22.815Z,85.94
2022-12-31T01:12:25.508Z,85.63
2022-12-31T01:13:27.435Z,85.60
2022-12-31T01:14:29.262Z,86.05
2022-12-31T01:15:38.467Z,86.33
2022-12-31T01:16:53.324Z,86.06
2022-12-31T01:17:55.099Z,85.85
2022-12-31T01:18:59.172Z,85.67
2022-12-31T01:20:01.021Z,85.69
2022-12-31T01:21:04.260Z,85.40
2022-12-31T01:22:06.195Z,85.91
2022-12-31T01:23:08.979Z,85.94
2022-12-31T01:24:11.576Z,85.50
2022-12-31T01:25:13.413Z,85.45
2022-12-31T01:26:16.177Z,86.31
2022-12-31T01:27:18.050Z,85.90
2022-12-31T01:28:19.829Z,86.71
2022-12-31T01:29:21.636Z,85.87
2022-12-31T01:30:23.487Z,86.84
2022-12-31T01:31:25.490Z,86.30
2022-12-31T01:32:27.370Z,86.15
2022-12-31T01:33:29.199Z,86.86
2022-12-31T01:34:31.135Z,86.97
2022-12-31T01:35:34.447Z,86.56
2022-12-31T01:36:37.363Z,86.24
2022-12-31T01:37:39.270Z,86.74
2022-12-31T01:38:41.410Z,86.94
2022-12-31T01:39:43.299Z,86.80
2022-12-31T01:40:45.110Z,86.52
2022-12-31T01:41:47.839Z,86.64
2022-12-31T01:42:59.166Z,86.73
2022-12-31T01:44:24.025Z,86.78
2022-12-31T01:45:25.953Z,86.10
2022-12-31T01:46:38.339Z,86.31
2022-12-31T01:47:43.803Z,86.31
2022-12-31T01:48:47.992Z,86.53
2022-12-31T01:49:57.606Z,86.33
2022-12-31T01:50:59.923Z,85.67
2022-12-31T01:52:07.585Z,85.95
2022-12-31T01:53:11.124Z,85.41
2022-12-31T01:54:14.460Z,85.84
2022-12-31T01:55:20.588Z,86.16
2022-12-31T01:56:23.320Z,85.79
2022-12-31T01:57:26.272Z,85.22
2022-12-31T01:58:30.106Z,85.63
2022-12-31T01:59:32.669Z,85.75
2022-12-31T02:00:34.719Z,85.08
2022-12-31T02:01:37.301Z,85.72
2022-12-31T02:02:39.422Z,85.43
2022-12-31T02:03:41.600Z,85.49
2022-12-31T02:04:43.609Z,85.08
2022-12-31T02:06:05.739Z,85.22
2022-12-31T02:07:08.435Z,85.64
2022-12-31T02:08:10.764Z,85.41
2022-12-31T02:09:13.388Z,85.53
2022-12-31T02:10:15.214Z,85.44
2022-12-31T02:11:25.559Z,85.33
2022-12-31T02:12:27.386Z,86.08
2022-12-31T02:13:29.839Z,85.14
2022-12-31T02:14:37.130Z,86.13
2022-12-31T02:15:42.284Z,85.58
2022-12-31T02:16:44.097Z,85.53
2022-12-31T02:17:45.962Z,85.88
2022-12-31T02:18:54.039Z,85.05
2022-12-31T02:20:08.042Z,85.63
2022-12-31T02:21:33.174Z,85.58
2022-12-31T02:22:35.095Z,85.02
2022-12-31T02:23:55.806Z,85.67
2022-12-31T02:25:16.387Z,85.16
2022-12-31T02:26:24.064Z,86.36
2022-12-31T02:27:31.973Z,86.29
2022-12-31T02:28:52.556Z,86.14
2022-12-31T02:29:57.288Z,86.40
2022-12-31T02:31:16.762Z,86.08
2022-12-31T02:32:24.273Z,86.28
2022-12-31T02:33:40.955Z,85.43
2022-12-31T02:34:52.811Z,85.10
2022-12-31T02:35:58.287Z,84.83
2022-12-31T02:37:03.484Z,84.69
2022-12-31T02:38:08.198Z,85.36
2022-12-31T02:39:10.952Z,84.71
2022-12-31T02:40:15.292Z,84.64
2022-12-31T02:41:37.638Z,84.63
2022-12-31T02:42:39.526Z,84.09
2022-12-31T02:43:48.866Z,83.88
2022-12-31T02:44:50.737Z,84.06
2022-12-31T02:46:15.720Z,84.41
2022-12-31T02:47:40.924Z,83.46
2022-12-31T02:48:49.516Z,83.21
2022-12-31T02:49:51.296Z,82.80
2022-12-31T02:51:22.313Z,82.89
2022-12-31T02:52:49.570Z,82.56
2022-12-31T02:54:11.729Z,83.49
2022-12-31T02:55:25.269Z,83.13
2022-12-31T02:56:27.044Z,82.71
2022-12-31T02:57:34.951Z,83.22
2022-12-31T02:59:08.251Z,83.13
2022-12-31T03:00:30.123Z,83.26
2022-12-31T03:01:55.765Z,82.94
2022-12-31T03:02:58.960Z,83.64
2022-12-31T03:04:19.468Z,83.30
2022-12-31T03:05:25.374Z,83.66
2022-12-31T03:06:27.222Z,82.60
2022-12-31T03:07:30.856Z,83.57
2022-12-31T03:08:52.568Z,82.87
2022-12-31T03:09:55.042Z,83.46
2022-12-31T03:10:57.364Z,84.41
2022-12-31T03:12:18.090Z,83.97
2022-12-31T03:13:20.065Z,84.60
2022-12-31T03:14:21.957Z,84.75
2022-12-31T03:15:33.639Z,84.17
2022-12-31T03:16:35.509Z,83.79
2022-12-31T03:17:37.347Z,84.29
2022-12-31T03:18:57.817Z,83.62
2022-12-31T03:20:18.066Z,83.44
2022-12-31T03:21:38.249Z,83.31
2022-12-31T03:22:41.403Z,83.57
2022-12-31T03:23:50.343Z,83.31
2022-12-31T03:25:10.337Z,83.28
2022-12-31T03:26:12.703Z,83.99
2022-12-31T03:27:14.521Z,83.68
2022-12-31T03:28:18.249Z,83.76
2022-12-31T03:29:20.279Z,83.19
2022-12-31T03:30:23.027Z,84.11
2022-12-31T03:31:24.918Z,83.50
2022-12-31T03:32:26.770Z,83.27
2022-12-31T03:33:36.124Z,83.58
2022-12-31T03:34:37.956Z,82.99
2022-12-31T03:35:41.047Z,83.21
2022-12-31T03:36:42.872Z,83.81
2022-12-31T03:37:44.735Z,83.81
2022-12-31T03:38:51.190Z,83.27
2022-12-31T03:39:54.590Z,82.51
2022-12-31T03:40:56.671Z,82.48
2022-12-31T03:41:58.498Z,82.76
2022-12-31T03:43:00.425Z,83.28
2022-12-31T03:44:02.226Z,83.35
2022-12-31T03:45:04.481Z,83.17
2022-12-31T03:46:06.696Z,83.16
2022-12-31T03:47:08.591Z,82.87
2022-12-31T03:48:11.060Z,83.31
2022-12-31T03:49:12.896Z,82.82
2022-12-31T03:50:16.475Z,83.30
2022-12-31T03:51:18.312Z,82.80
2022-12-31T03:52:20.511Z,83.32
2022-12-31T03:53:22.511Z,83.12
2022-12-31T03:54:24.351Z,82.98
2022-12-31T03:55:26.404Z,82.91
2022-12-31T03:56:28.343Z,83.24
2022-12-31T03:57:30.451Z,83.62
2022-12-31T03:58:32.310Z,83.72
2022-12-31T03:59:34.487Z,83.96
2022-12-31T04:00:36.566Z,83.91
2022-12-31T04:01:38.546Z,83.94
2022-12-31T04:02:40.775Z,83.53
2022-12-31T04:03:42.623Z,83.97
2022-12-31T04:04:44.457Z,84.42
2022-12-31T04:05:52.139Z,84.25
2022-12-31T04:06:54.074Z,84.04
2022-12-31T04:07:56.775Z,84.48
2022-12-31T04:08:58.625Z,84.23
2022-12-31T04:10:00.485Z,84.55
2022-12-31T04:11:02.280Z,84.70
2022-12-31T04:12:04.280Z,84.46
2022-12-31T04:13:06.222Z,85.49
2022-12-31T04:14:08.105Z,85.00
2022-12-31T04:15:10.853Z,84.63
2022-12-31T04:16:12.748Z,85.05
2022-12-31T04:17:14.531Z,84.70
2022-12-31T04:18:16.367Z,85.01
2022-12-31T04:19:18.996Z,85.48
2022-12-31T04:20:20.882Z,85.98
2022-12-31T04:21:22.733Z,85.69
2022-12-31T04:22:24.623Z,85.98
2022-12-31T04:23:26.427Z,85.76
2022-12-31T04:24:30.010Z,85.14
2022-12-31T04:25:31.921Z,85.21
2022-12-31T04:26:33.794Z,85.31
2022-12-31T04:27:35.726Z,85.32
2022-12-31T04:28:37.598Z,85.27
2022-12-31T04:29:39.968Z,85.33
2022-12-31T04:30:41.765Z,85.84
2022-12-31T04:31:43.605Z,85.30
2022-12-31T04:32:45.537Z,85.29
2022-12-31T04:33:47.422Z,85.32
2022-12-31T04:34:49.261Z,85.63
2022-12-31T04:35:51.063Z,85.20
2022-12-31T04:36:53.031Z,86.16
2022-12-31T04:37:56.087Z,86.01
2022-12-31T04:38:57.991Z,85.22
2022-12-31T04:40:05.490Z,86.33
2022-12-31T04:41:17.577Z,85.47
2022-12-31T04:42:19.461Z,85.71
2022-12-31T04:43:21.238Z,85.54
2022-12-31T04:44:23.142Z,85.93
2022-12-31T04:45:24.922Z,85.64
2022-12-31T04:46:31.944Z,86.09
2022-12-31T04:47:33.741Z,86.49
2022-12-31T04:48:35.612Z,85.40
2022-12-31T04:49:37.436Z,86.28
2022-12-31T04:50:39.249Z,85.98
2022-12-31T04:51:41.136Z,85.39
2022-12-31T04:52:43.236Z,85.51
2022-12-31T04:53:45.173Z,85.61
2022-12-31T04:54:48.046Z,85.58
2022-12-31T04:55:50.132Z,85.73
2022-12-31T04:56:52.177Z,86.01
2022-12-31T04:57:53.974Z,86.10
2022-12-31T04:58:56.220Z,86.83
2022-12-31T04:59:58.007Z,86.49
2022-12-31T05:01:00.212Z,87.40
2022-12-31T05:02:02.281Z,87.69
2022-12-31T05:03:04.355Z,87.68
2022-12-31T05:04:06.477Z,87.81
2022-12-31T05:05:08.538Z,87.01
2022-12-31T05:06:17.854Z,87.47
2022-12-31T05:07:19.716Z,87.87
2022-12-31T05:08:21.727Z,87.90
2022-12-31T05:09:24.405Z,87.10
2022-12-31T05:10:26.273Z,87.59
2022-12-31T05:11:28.280Z,87.31
2022-12-31T05:12:30.230Z,87.62
2022-12-31T05:13:33.488Z,87.15
2022-12-31T05:14:35.629Z,87.17
2022-12-31T05:15:37.459Z,87.54
2022-12-31T05:16:40.092Z,87.21
2022-12-31T05:17:41.864Z,87.85
2022-12-31T05:18:43.658Z,86.80
2022-12-31T05:19:45.461Z,86.60
2022-12-31T05:20:47.895Z,86.57
2022-12-31T05:22:11.063Z,86.79
2022-12-31T05:23:13.342Z,86.67
2022-12-31T05:24:15.270Z,86.54
2022-12-31T05:25:17.307Z,86.52
2022-12-31T05:26:19.131Z,86.92
2022-12-31T05:27:21.117Z,86.62
2022-12-31T05:28:23.026Z,87.07
2022-12-31T05:29:24.878Z,86.54
2022-12-31T05:30:26.792Z,86.44
2022-12-31T05:31:28.661Z,85.85
2022-12-31T05:32:30.815Z,85.20
2022-12-31T05:33:32.780Z,84.81
2022-12-31T05:34:34.579Z,84.69
2022-12-31T05:35:37.154Z,85.12
2022-12-31T05:36:38.963Z,85.12
2022-12-31T05:37:40.996Z,84.28
2022-12-31T05:38:42.871Z,85.03
2022-12-31T05:39:44.790Z,85.43
2022-12-31T05:40:46.635Z,85.21
2022-12-31T05:41:48.436Z,85.06
2022-12-31T05:42:51.029Z,85.63
2022-12-31T05:43:54.134Z,85.86
2022-12-31T05:44:55.963Z,85.38
2022-12-31T05:46:00.264Z,85.13
2022-12-31T05:47:02.228Z,85.08
2022-12-31T05:48:04.292Z,84.36
2022-12-31T05:49:06.072Z,83.97
2022-12-31T05:50:09.254Z,85.06
2022-12-31T05:51:11.053Z,84.45
2022-12-31T05:52:12.941Z,85.15
2022-12-31T05:53:14.777Z,85.10
2022-12-31T05:54:16.607Z,85.61
2022-12-31T05:55:18.615Z,85.79
2022-12-31T05:56:20.883Z,85.74
2022-12-31T05:57:22.786Z,85.78
2022-12-31T05:58:24.691Z,85.80
2022-12-31T05:59:26.587Z,85.75
2022-12-31T06:00:28.455Z,86.01
2022-12-31T06:01:30.240Z,85.66
2022-12-31T06:02:32.176Z,85.40
2022-12-31T06:03:35.197Z,85.75
2022-12-31T06:04:37.014Z,85.82
2022-12-31T06:05:42.973Z,85.73
2022-12-31T06:06:46.404Z,85.82
2022-12-31T06:07:48.180Z,85.53
2022-12-31T06:08:50.564Z,85.02
2022-12-31T06:09:52.432Z,85.27
2022-12-31T06:10:54.228Z,85.51
2022-12-31T06:11:55.982Z,85.42
2022-12-31T06:12:57.885Z,85.31
2022-12-31T06:13:59.656Z,86.29
2022-12-31T06:15:01.683Z,86.20
2022-12-31T06:16:07.657Z,86.11
2022-12-31T06:17:09.563Z,86.30
2022-12-31T06:18:11.373Z,86.19
2022-12-31T06:19:13.154Z,86.93
2022-12-31T06:20:14.992Z,86.55
2022-12-31T06:21:21.285Z,87.22
2022-12-31T06:22:23.099Z,86.76
2022-12-31T06:23:25.078Z,87.08
2022-12-31T06:24:26.912Z,87.22
2022-12-31T06:25:28.875Z,88.43
2022-12-31T06:26:30.781Z,88.10
2022-12-31T06:27:32.571Z,88.91
2022-12-31T06:28:34.445Z,88.48
2022-12-31T06:29:36.279Z,88.86
2022-12-31T06:30:38.152Z,89.20
2022-12-31T06:31:40.017Z,90.06
2022-12-31T06:32:42.404Z,89.88
2022-12-31T06:33:44.306Z,89.45
2022-12-31T06:34:46.118Z,89.69
2022-12-31T06:35:49.204Z,89.54
2022-12-31T06:36:51.107Z,90.36
2022-12-31T06:37:52.974Z,89.98
2022-12-31T06:38:55.887Z,90.23
2022-12-31T06:39:57.687Z,89.92
2022-12-31T06:41:04.195Z,89.71
2022-12-31T06:42:06.324Z,89.85
2022-12-31T06:43:08.103Z,89.80
2022-12-31T06:44:09.987Z,89.18
2022-12-31T06:45:11.975Z,89.74
2022-12-31T06:46:15.110Z,88.84
2022-12-31T06:47:16.983Z,89.54
2022-12-31T06:48:19.017Z,89.48
2022-12-31T06:49:20.853Z,89.61
2022-12-31T06:50:22.663Z,89.15
2022-12-31T06:51:25.194Z,89.80
2022-12-31T06:52:27.000Z,88.74
2022-12-31T06:53:28.764Z,89.71
2022-12-31T06:54:30.639Z,88.86
2022-12-31T06:55:33.008Z,88.65
2022-12-31T06:56:35.764Z,88.86
2022-12-31T06:57:37.740Z,88.66
2022-12-31T06:58:39.698Z,88.28
2022-12-31T06:59:41.616Z,88.65
2022-12-31T07:00:50.743Z,88.18
2022-12-31T07:02:00.076Z,89.03
2022-12-31T07:03:02.078Z,88.44
2022-12-31T07:04:03.881Z,87.90
2022-12-31T07:05:06.721Z,87.72
2022-12-31T07:06:16.801Z,88.28
2022-12-31T07:07:26.665Z,87.95
2022-12-31T07:08:57.868Z,87.86
2022-12-31T07:10:12.536Z,88.46
2022-12-31T07:11:29.258Z,88.52
2022-12-31T07:12:31.028Z,88.43
2022-12-31T07:13:35.729Z,88.82
2022-12-31T07:14:40.737Z,88.36
2022-12-31T07:15:58.277Z,88.71
2022-12-31T07:17:00.014Z,87.91
2022-12-31T07:18:20.395Z,87.75
2022-12-31T07:19:25.067Z,88.92
2022-12-31T07:20:27.091Z,88.49
2022-12-31T07:21:36.145Z,88.79
2022-12-31T07:22:38.040Z,88.73
2022-12-31T07:23:40.495Z,88.46
2022-12-31T07:24:43.295Z,88.32
2022-12-31T07:25:50.334Z,88.07
2022-12-31T07:27:01.551Z,87.57
2022-12-31T07:28:03.844Z,87.76
2022-12-31T07:29:12.316Z,87.90
2022-12-31T07:30:21.360Z,88.24
2022-12-31T07:31:23.190Z,88.60
2022-12-31T07:32:35.280Z,88.20
2022-12-31T07:33:49.498Z,87.75
2022-12-31T07:34:51.250Z,87.47
2022-12-31T07:36:01.856Z,87.56
2022-12-31T07:37:08.099Z,86.64
2022-12-31T07:38:15.743Z,86.95
2022-12-31T07:39:23.796Z,87.08
2022-12-31T07:40:44.127Z,87.46
2022-12-31T07:41:48.787Z,87.28
2022-12-31T07:43:09.410Z,87.33
2022-12-31T07:44:29.924Z,87.49
2022-12-31T07:45:57.753Z,87.94
2022-12-31T07:47:02.515Z,87.75
2022-12-31T07:48:14.586Z,87.51
2022-12-31T07:49:16.631Z,86.49
2022-12-31T07:50:19.099Z,86.31
2022-12-31T07:51:22.328Z,87.42
2022-12-31T07:52:24.522Z,86.13
2022-12-31T07:53:27.077Z,87.44
2022-12-31T07:54:28.939Z,86.61
2022-12-31T07:55:30.806Z,86.94
2022-12-31T07:56:32.758Z,87.48
2022-12-31T07:57:37.241Z,85.88
2022-12-31T07:59:02.777Z,87.29
2022-12-31T08:00:08.297Z,86.36
2022-12-31T08:01:12.632Z,86.68
2022-12-31T08:02:38.545Z,86.85
2022-12-31T08:03:50.948Z,86.90
2022-12-31T08:05:11.595Z,86.70
2022-12-31T08:06:25.310Z,87.39
2022-12-31T08:07:35.841Z,86.16
2022-12-31T08:08:52.788Z,86.36
2022-12-31T08:10:17.710Z,86.42
2022-12-31T08:11:31.185Z,86.87
2022-12-31T08:12:34.395Z,85.66
2022-12-31T08:13:36.267Z,86.14
2022-12-31T08:14:43.778Z,86.04
2022-12-31T08:15:45.665Z,85.21
2022-12-31T08:16:47.731Z,85.48
2022-12-31T08:17:50.078Z,85.51
2022-12-31T08:18:52.146Z,85.94
2022-12-31T08:19:54.067Z,85.68
2022-12-31T08:20:55.886Z,86.19
2022-12-31T08:22:16.199Z,86.86
2022-12-31T08:23:27.268Z,85.82
2022-12-31T08:24:30.207Z,86.65
2022-12-31T08:25:55.059Z,85.70
2022-12-31T08:27:21.360Z,86.04
2022-12-31T08:28:39.235Z,85.58
2022-12-31T08:29:47.674Z,85.70
2022-12-31T08:30:55.901Z,85.92
2022-12-31T08:31:57.626Z,85.42
2022-12-31T08:33:11.595Z,85.40
2022-12-31T08:34:19.314Z,85.59
2022-12-31T08:35:39.751Z,85.11
2022-12-31T08:37:00.356Z,85.88
2022-12-31T08:38:20.948Z,86.48
2022-12-31T08:39:48.452Z,85.59
2022-12-31T08:41:00.299Z,85.78
2022-12-31T08:42:04.319Z,86.35
2022-12-31T08:43:18.588Z,85.35
2022-12-31T08:44:33.381Z,85.35
2022-12-31T08:45:39.450Z,85.65
2022-12-31T08:46:56.738Z,86.06
2022-12-31T08:48:10.745Z,85.24
2022-12-31T08:49:14.979Z,85.67
2022-12-31T08:50:18.405Z,85.43
2022-12-31T08:51:21.931Z,85.55
2022-12-31T08:52:24.953Z,85.79
2022-12-31T08:53:26.911Z,85.78
2022-12-31T08:54:29.023Z,85.58
2022-12-31T08:55:31.023Z,85.16
2022-12-31T08:56:56.070Z,85.26
2022-12-31T08:58:00.965Z,85.19
2022-12-31T08:59:21.271Z,85.98
2022-12-31T09:00:23.387Z,84.78
2022-12-31T09:01:28.455Z,85.22
2022-12-31T09:02:49.034Z,85.90
2022-12-31T09:03:50.853Z,86.01
2022-12-31T09:04:55.407Z,85.49
2022-12-31T09:06:05.715Z,85.71
2022-12-31T09:07:09.755Z,86.47
2022-12-31T09:08:17.858Z,85.99
2022-12-31T09:09:35.075Z,85.52
2022-12-31T09:10:52.300Z,86.52
2022-12-31T09:12:00.064Z,86.33
2022-12-31T09:13:20.803Z,85.90
2022-12-31T09:14:43.425Z,85.69
2022-12-31T09:15:53.065Z,86.32
2022-12-31T09:17:13.437Z,86.10
2022-12-31T09:18:15.544Z,86.00
2022-12-31T09:19:17.341Z,87.29
2022-12-31T09:20:25.257Z,87.22
2022-12-31T09:21:27.269Z,86.73
2022-12-31T09:22:29.314Z,86.98
2022-12-31T09:23:31.293Z,87.22
2022-12-31T09:24:33.224Z,86.63
2022-12-31T09:25:41.631Z,86.79
2022-12-31T09:27:09.785Z,86.74
2022-12-31T09:28:18.169Z,87.36
2022-12-31T09:29:19.942Z,87.10
2022-12-31T09:30:22.052Z,87.65
2022-12-31T09:31:47.286Z,87.61
2022-12-31T09:33:08.429Z,86.34
2022-12-31T09:34:17.951Z,85.96
2022-12-31T09:35:30.449Z,86.07
2022-12-31T09:36:36.971Z,85.86
2022-12-31T09:37:38.792Z,86.04
2022-12-31T09:38:40.604Z,85.13
2022-12-31T09:39:43.838Z,84.68
2022-12-31T09:40:48.796Z,85.42
2022-12-31T09:41:53.665Z,85.04
2022-12-31T09:42:59.475Z,85.29
2022-12-31T09:44:10.513Z,85.86
2022-12-31T09:45:24.457Z,85.60
2022-12-31T09:46:30.616Z,84.88
2022-12-31T09:47:54.957Z,85.35
2022-12-31T09:49:15.312Z,84.58
2022-12-31T09:50:42.597Z,85.26
2022-12-31T09:51:50.403Z,84.69
2022-12-31T09:52:58.345Z,84.93
2022-12-31T09:54:09.417Z,84.73
2022-12-31T09:55:29.837Z,85.10
2022-12-31T09:56:34.667Z,85.04
2022-12-31T09:57:41.657Z,84.50
2022-12-31T09:58:58.414Z,84.62
2022-12-31T10:00:00.314Z,85.38
2022-12-31T10:01:23.832Z,85.37
2022-12-31T10:02:43.944Z,85.66
2022-12-31T10:03:51.658Z,85.28
2022-12-31T10:05:01.764Z,85.28
2022-12-31T10:06:06.283Z,85.24
2022-12-31T10:07:25.335Z,85.11
2022-12-31T10:08:36.298Z,85.58
2022-12-31T10:09:47.533Z,85.62
2022-12-31T10:10:58.189Z,85.33
2022-12-31T10:12:18.928Z,84.89
2022-12-31T10:13:34.861Z,85.67
2022-12-31T10:14:47.758Z,84.38
2022-12-31T10:15:55.932Z,85.52
2022-12-31T10:17:00.817Z,85.16
2022-12-31T10:18:14.677Z,85.03
2022-12-31T10:19:16.403Z,85.66
2022-12-31T10:20:27.368Z,85.43
2022-12-31T10:21:29.263Z,85.27
2022-12-31T10:22:49.851Z,84.42
2022-12-31T10:24:10.318Z,85.01
2022-12-31T10:25:21.497Z,84.75
2022-12-31T10:26:53.525Z,84.99
2022-12-31T10:28:00.561Z,85.04
2022-12-31T10:29:08.668Z,84.93
2022-12-31T10:30:17.595Z,85.49
2022-12-31T10:31:37.847Z,84.85
2022-12-31T10:32:58.108Z,85.03
2022-12-31T10:34:18.456Z,84.87
2022-12-31T10:35:23.256Z,84.32
2022-12-31T10:36:45.270Z,84.05
2022-12-31T10:37:56.020Z,84.41
2022-12-31T10:39:06.193Z,84.97
2022-12-31T10:40:20.292Z,85.28
2022-12-31T10:41:25.247Z,85.19
2022-12-31T10:42:39.247Z,85.05
2022-12-31T10:43:59.927Z,85.40
2022-12-31T10:45:10.910Z,85.68
2022-12-31T10:46:31.512Z,86.76
2022-12-31T10:47:52.226Z,86.90
2022-12-31T10:49:26.553Z,87.38
2022-12-31T10:50:31.213Z,87.84
2022-12-31T10:51:51.804Z,88.15
2022-12-31T10:53:03.227Z,88.16
2022-12-31T10:54:14.348Z,87.85
2022-12-31T10:55:32.567Z,88.50
2022-12-31T10:56:48.011Z,88.47
2022-12-31T10:57:49.753Z,88.83
2022-12-31T10:59:03.208Z,88.61
2022-12-31T11:00:12.797Z,88.20
2022-12-31T11:01:20.060Z,88.08
2022-12-31T11:02:40.441Z,87.38
2022-12-31T11:04:01.396Z,87.12
2022-12-31T11:05:22.229Z,87.31
2022-12-31T11:06:36.044Z,86.32
2022-12-31T11:07:37.826Z,86.82
2022-12-31T11:08:59.565Z,86.89
2022-12-31T11:10:04.493Z,87.43
2022-12-31T11:11:13.190Z,87.05
2022-12-31T11:12:27.919Z,87.36
2022-12-31T11:13:29.792Z,86.48
2022-12-31T11:14:50.223Z,86.87
2022-12-31T11:16:01.153Z,85.88
2022-12-31T11:17:09.977Z,85.63
2022-12-31T11:18:27.649Z,85.43
2022-12-31T11:19:36.821Z,86.07
2022-12-31T11:21:04.662Z,85.41
2022-12-31T11:22:18.806Z,85.81
2022-12-31T11:23:56.291Z,85.49
2022-12-31T11:25:06.545Z,85.53
2022-12-31T11:26:08.357Z,85.78
2022-12-31T11:27:10.178Z,85.89
2022-12-31T11:28:14.713Z,85.99
2022-12-31T11:29:24.884Z,85.70
2022-12-31T11:30:29.431Z,85.73
2022-12-31T11:31:37.129Z,86.05
2022-12-31T11:32:38.903Z,85.76
2022-12-31T11:33:59.909Z,85.67
2022-12-31T11:35:28.033Z,85.50
2022-12-31T11:36:55.859Z,85.36
2022-12-31T11:38:16.389Z,84.80
2022-12-31T11:39:31.424Z,84.40
2022-12-31T11:40:37.650Z,84.66
2022-12-31T11:41:49.975Z,84.79
2022-12-31T11:42:57.618Z,84.60
2022-12-31T11:44:02.244Z,84.73
2022-12-31T11:45:33.441Z,84.76
2022-12-31T11:46:35.479Z,84.61
2022-12-31T11:48:29.256Z,84.50
2022-12-31T11:49:19.558Z,84.02
2022-12-31T11:50:24.174Z,83.83
2022-12-31T11:51:25.957Z,83.90
2022-12-31T11:52:34.157Z,84.49
2022-12-31T11:53:51.990Z,84.23
2022-12-31T11:55:02.784Z,84.25
2022-12-31T11:56:07.730Z,84.61
2022-12-31T11:57:27.493Z,84.76
2022-12-31T11:58:30.172Z,84.58
2022-12-31T11:59:32.147Z,84.74
2022-12-31T12:00:34.627Z,84.35
2022-12-31T12:01:54.619Z,84.62
2022-12-31T12:03:00.099Z,84.96
2022-12-31T12:04:02.247Z,85.24
2022-12-31T12:05:11.075Z,84.67
2022-12-31T12:06:14.564Z,84.96
2022-12-31T12:07:16.672Z,84.41
2022-12-31T12:08:21.026Z,84.46
2022-12-31T12:09:28.432Z,84.29
2022-12-31T12:10:36.392Z,84.54
2022-12-31T12:11:40.126Z,84.60
2022-12-31T12:12:42.712Z,84.65
2022-12-31T12:13:45.672Z,83.98
2022-12-31T12:14:52.019Z,83.76
2022-12-31T12:15:55.871Z,83.45
2022-12-31T12:17:04.303Z,83.81
2022-12-31T12:18:08.576Z,84.19
2022-12-31T12:19:17.084Z,84.13
2022-12-31T12:20:21.802Z,83.90
2022-12-31T12:21:25.531Z,84.23
2022-12-31T12:22:28.407Z,84.23
2022-12-31T12:23:30.242Z,83.38
2022-12-31T12:24:32.142Z,83.68
2022-12-31T12:25:41.024Z,83.65
2022-12-31T12:26:44.714Z,83.28
2022-12-31T12:27:46.663Z,83.26
2022-12-31T12:28:48.467Z,83.91
2022-12-31T12:29:50.496Z,83.69
2022-12-31T12:30:57.081Z,84.24
2022-12-31T12:32:03.500Z,83.53
2022-12-31T12:33:05.479Z,83.95
2022-12-31T12:34:21.408Z,84.10
2022-12-31T12:35:31.153Z,83.86
2022-12-31T12:36:33.704Z,83.35
2022-12-31T12:37:36.341Z,83.37
2022-12-31T12:38:38.533Z,83.22
2022-12-31T12:39:40.701Z,83.42
2022-12-31T12:40:43.707Z,83.25
2022-12-31T12:41:45.496Z,83.05
2022-12-31T12:42:52.020Z,82.73
2022-12-31T12:44:04.124Z,82.88
2022-12-31T12:45:15.529Z,82.59
2022-12-31T12:46:20.337Z,82.63
2022-12-31T12:47:23.245Z,82.50
2022-12-31T12:48:41.798Z,82.56
2022-12-31T12:49:47.703Z,82.81
2022-12-31T12:50:50.118Z,82.39
2022-12-31T12:52:10.979Z,82.46
2022-12-31T12:53:31.577Z,82.00
2022-12-31T12:54:37.174Z,82.31
2022-12-31T12:55:59.261Z,82.02
2022-12-31T12:57:20.682Z,81.57
2022-12-31T12:58:41.085Z,81.68
2022-12-31T12:59:57.785Z,81.24
2022-12-31T13:01:10.028Z,81.54
2022-12-31T13:02:21.330Z,81.57
2022-12-31T13:04:07.425Z,81.38
2022-12-31T13:05:03.929Z,80.98
2022-12-31T13:06:08.540Z,80.53
2022-12-31T13:07:10.327Z,80.40
2022-12-31T13:08:36.095Z,80.28
2022-12-31T13:09:58.179Z,78.48
2022-12-31T13:11:18.637Z,78.78
2022-12-31T13:12:24.858Z,78.44
2022-12-31T13:13:37.703Z,77.63
2022-12-31T13:14:53.569Z,76.78
2022-12-31T13:16:01.489Z,76.57
2022-12-31T13:17:15.494Z,77.33
2022-12-31T13:18:32.334Z,78.10
2022-12-31T13:19:44.565Z,78.47
2022-12-31T13:20:50.531Z,78.03
2022-12-31T13:21:55.367Z,74.94
2022-12-31T13:22:57.138Z,75.55
2022-12-31T13:24:01.940Z,75.48
2022-12-31T13:25:15.917Z,74.80
2022-12-31T13:26:22.942Z,73.37
2022-12-31T13:27:42.921Z,72.74
2022-12-31T13:28:46.702Z,73.35
2022-12-31T13:29:49.606Z,73.85
2022-12-31T13:30:54.725Z,72.78
2022-12-31T13:31:58.067Z,72.97
2022-12-31T13:33:00.003Z,72.66
2022-12-31T13:34:07.612Z,74.13
2022-12-31T13:35:30.332Z,72.90
2022-12-31T13:36:34.124Z,73.91
2022-12-31T13:37:41.124Z,73.45
2022-12-31T13:38:48.942Z,74.20
2022-12-31T13:39:54.334Z,74.59
2022-12-31T13:41:02.957Z,75.15
2022-12-31T13:42:10.756Z,74.69
2022-12-31T13:43:24.434Z,74.93
2022-12-31T13:44:31.496Z,74.62
2022-12-31T13:45:36.575Z,74.77
2022-12-31T13:46:44.150Z,75.21
2022-12-31T13:47:51.259Z,74.89
2022-12-31T13:49:02.373Z,75.50
2022-12-31T13:50:22.919Z,75.31
2022-12-31T13:51:29.485Z,75.52
2022-12-31T13:52:35.095Z,75.62
2022-12-31T13:53:40.341Z,75.61
2022-12-31T13:54:42.303Z,75.56
2022-12-31T13:55:56.646Z,76.52
2022-12-31T13:57:02.835Z,75.97
2022-12-31T13:58:23.788Z,76.06
2022-12-31T13:59:43.417Z,76.02
2022-12-31T14:00:47.897Z,76.67
2022-12-31T14:01:53.114Z,75.97
2022-12-31T14:03:10.660Z,76.11
2022-12-31T14:04:18.431Z,75.89
2022-12-31T14:05:25.686Z,75.65
2022-12-31T14:06:30.510Z,75.82
2022-12-31T14:07:40.380Z,75.77
2022-12-31T14:08:47.104Z,75.03
2022-12-31T14:09:49.133Z,75.24
2022-12-31T14:11:16.108Z,75.35
2022-12-31T14:12:18.822Z,75.28
2022-12-31T14:13:25.660Z,75.53
2022-12-31T14:14:42.375Z,75.77
2022-12-31T14:16:04.503Z,75.25
2022-12-31T14:17:12.886Z,75.69
2022-12-31T14:18:33.486Z,75.59
2022-12-31T14:19:41.317Z,75.38
2022-12-31T14:20:52.677Z,75.78
2022-12-31T14:22:06.709Z,76.03
2022-12-31T14:23:20.878Z,75.56
2022-12-31T14:24:41.267Z,75.64
2022-12-31T14:25:46.697Z,75.59